sensor_id;sensor_type;location;lat;lon;timestamp;pressure;altitude;pressure_sealevel;temperature;humidity
75815;BME280;70031;45.570;14.228;2024-01-10T00:01:33;97886.63;;;-3.57;100.00
75815;BME280;70031;45.570;14.228;2024-01-10T00:03:34;97877.91;;;-3.57;100.00
75815;BME280;70031;45.570;14.228;2024-01-10T00:05:34;97890.06;;;-3.56;100.00
75815;BME280;70031;45.570;14.228;2024-01-10T00:07:34;97887.63;;;-3.58;100.00
75815;BME280;70031;45.570;14.228;2024-01-10T00:09:36;97884.16;;;-3.58;100.00
75815;BME280;70031;45.570;14.228;2024-01-10T00:11:36;97891.75;;;-3.55;100.00
75815;BME280;70031;45.570;14.228;2024-01-10T00:13:36;97872.84;;;-3.59;100.00
75815;BME280;70031;45.570;14.228;2024-01-10T00:15:37;97883.00;;;-3.56;100.00
75815;BME280;70031;45.570;14.228;2024-01-10T00:17:37;97885.47;;;-3.54;100.00
75815;BME280;70031;45.570;14.228;2024-01-10T00:19:37;97885.94;;;-3.51;100.00
75815;BME280;70031;45.570;14.228;2024-01-10T00:21:37;97878.72;;;-3.57;100.00
75815;BME280;70031;45.570;14.228;2024-01-10T00:23:38;97880.72;;;-3.59;100.00
75815;BME280;70031;45.570;14.228;2024-01-10T00:25:38;97882.84;;;-3.54;100.00
75815;BME280;70031;45.570;14.228;2024-01-10T00:27:38;97887.97;;;-3.61;100.00
75815;BME280;70031;45.570;14.228;2024-01-10T00:29:39;97886.53;;;-3.63;100.00
75815;BME280;70031;45.570;14.228;2024-01-10T00:31:39;97866.44;;;-3.64;100.00
75815;BME280;70031;45.570;14.228;2024-01-10T00:33:40;97867.28;;;-3.64;100.00
75815;BME280;70031;45.570;14.228;2024-01-10T00:35:40;97876.00;;;-3.63;100.00
75815;BME280;70031;45.570;14.228;2024-01-10T00:37:40;97883.88;;;-3.63;100.00
75815;BME280;70031;45.570;14.228;2024-01-10T00:39:40;97877.44;;;-3.61;100.00
75815;BME280;70031;45.570;14.228;2024-01-10T00:41:41;97884.53;;;-3.61;100.00
75815;BME280;70031;45.570;14.228;2024-01-10T00:43:41;97884.72;;;-3.63;100.00
75815;BME280;70031;45.570;14.228;2024-01-10T00:45:41;97879.28;;;-3.61;100.00
75815;BME280;70031;45.570;14.228;2024-01-10T00:47:42;97882.22;;;-3.64;100.00
75815;BME280;70031;45.570;14.228;2024-01-10T00:49:42;97873.38;;;-3.63;100.00
75815;BME280;70031;45.570;14.228;2024-01-10T00:51:42;97871.88;;;-3.66;100.00
75815;BME280;70031;45.570;14.228;2024-01-10T00:53:42;97869.78;;;-3.71;100.00
75815;BME280;70031;45.570;14.228;2024-01-10T00:55:42;97875.31;;;-3.65;100.00
75815;BME280;70031;45.570;14.228;2024-01-10T00:57:42;97874.69;;;-3.68;100.00
75815;BME280;70031;45.570;14.228;2024-01-10T00:59:43;97871.69;;;-3.64;100.00
75815;BME280;70031;45.570;14.228;2024-01-10T01:01:43;97874.50;;;-3.66;100.00
75815;BME280;70031;45.570;14.228;2024-01-10T01:03:43;97873.00;;;-3.60;100.00
75815;BME280;70031;45.570;14.228;2024-01-10T01:05:43;97867.56;;;-3.59;100.00
75815;BME280;70031;45.570;14.228;2024-01-10T01:07:43;97856.41;;;-3.61;100.00
75815;BME280;70031;45.570;14.228;2024-01-10T01:09:44;97858.84;;;-3.59;100.00
75815;BME280;70031;45.570;14.228;2024-01-10T01:11:44;97851.16;;;-3.61;100.00
75815;BME280;70031;45.570;14.228;2024-01-10T01:13:44;97854.25;;;-3.57;100.00
75815;BME280;70031;45.570;14.228;2024-01-10T01:15:45;97855.63;;;-3.70;100.00
75815;BME280;70031;45.570;14.228;2024-01-10T01:17:45;97845.75;;;-3.68;100.00
75815;BME280;70031;45.570;14.228;2024-01-10T01:19:45;97849.38;;;-3.69;100.00
75815;BME280;70031;45.570;14.228;2024-01-10T01:21:45;97840.44;;;-3.59;100.00
75815;BME280;70031;45.570;14.228;2024-01-10T01:23:45;97834.38;;;-3.60;100.00
75815;BME280;70031;45.570;14.228;2024-01-10T01:25:46;97855.41;;;-3.60;100.00
75815;BME280;70031;45.570;14.228;2024-01-10T01:27:46;97843.75;;;-3.65;100.00
75815;BME280;70031;45.570;14.228;2024-01-10T01:29:46;97851.50;;;-3.64;100.00
75815;BME280;70031;45.570;14.228;2024-01-10T01:31:47;97849.03;;;-3.65;100.00
75815;BME280;70031;45.570;14.228;2024-01-10T01:33:47;97849.88;;;-3.73;100.00
75815;BME280;70031;45.570;14.228;2024-01-10T01:35:47;97850.88;;;-3.74;100.00
75815;BME280;70031;45.570;14.228;2024-01-10T01:37:48;97853.00;;;-3.70;100.00
75815;BME280;70031;45.570;14.228;2024-01-10T01:39:48;97857.94;;;-3.75;100.00
75815;BME280;70031;45.570;14.228;2024-01-10T01:41:49;97848.75;;;-3.71;100.00
75815;BME280;70031;45.570;14.228;2024-01-10T01:43:50;97848.75;;;-3.71;100.00
75815;BME280;70031;45.570;14.228;2024-01-10T01:45:50;97845.28;;;-3.71;100.00
75815;BME280;70031;45.570;14.228;2024-01-10T01:47:51;97839.53;;;-3.75;100.00
75815;BME280;70031;45.570;14.228;2024-01-10T01:49:52;97835.47;;;-3.77;100.00
75815;BME280;70031;45.570;14.228;2024-01-10T01:51:52;97844.00;;;-3.75;100.00
75815;BME280;70031;45.570;14.228;2024-01-10T01:53:52;97838.69;;;-3.67;100.00
75815;BME280;70031;45.570;14.228;2024-01-10T01:55:53;97840.50;;;-3.68;100.00
75815;BME280;70031;45.570;14.228;2024-01-10T01:57:53;97854.28;;;-3.65;100.00
75815;BME280;70031;45.570;14.228;2024-01-10T01:59:54;97843.31;;;-3.69;100.00
75815;BME280;70031;45.570;14.228;2024-01-10T02:01:54;97844.75;;;-3.67;100.00
75815;BME280;70031;45.570;14.228;2024-01-10T02:03:55;97848.75;;;-3.71;100.00
75815;BME280;70031;45.570;14.228;2024-01-10T02:05:55;97850.28;;;-3.84;100.00
75815;BME280;70031;45.570;14.228;2024-01-10T02:07:55;97859.44;;;-4.11;100.00
75815;BME280;70031;45.570;14.228;2024-01-10T02:09:55;97854.75;;;-4.32;100.00
75815;BME280;70031;45.570;14.228;2024-01-10T02:11:55;97849.97;;;-4.29;100.00
75815;BME280;70031;45.570;14.228;2024-01-10T02:13:57;97849.91;;;-4.04;100.00
75815;BME280;70031;45.570;14.228;2024-01-10T02:15:57;97849.78;;;-4.19;100.00
75815;BME280;70031;45.570;14.228;2024-01-10T02:17:57;97856.91;;;-4.36;100.00
75815;BME280;70031;45.570;14.228;2024-01-10T02:20:10;97848.22;;;-4.44;100.00
75815;BME280;70031;45.570;14.228;2024-01-10T02:22:10;97856.47;;;-4.88;100.00
75815;BME280;70031;45.570;14.228;2024-01-10T02:24:11;97859.28;;;-4.90;100.00
75815;BME280;70031;45.570;14.228;2024-01-10T02:26:11;97864.53;;;-5.06;100.00
75815;BME280;70031;45.570;14.228;2024-01-10T02:28:11;97864.88;;;-5.09;100.00
75815;BME280;70031;45.570;14.228;2024-01-10T02:30:11;97856.66;;;-4.98;100.00
75815;BME280;70031;45.570;14.228;2024-01-10T02:32:11;97863.22;;;-5.10;100.00
75815;BME280;70031;45.570;14.228;2024-01-10T02:34:12;97857.63;;;-5.23;100.00
75815;BME280;70031;45.570;14.228;2024-01-10T02:36:12;97862.06;;;-5.24;100.00
75815;BME280;70031;45.570;14.228;2024-01-10T02:38:12;97864.38;;;-5.13;100.00
75815;BME280;70031;45.570;14.228;2024-01-10T02:40:12;97867.97;;;-4.97;100.00
75815;BME280;70031;45.570;14.228;2024-01-10T02:42:13;97857.31;;;-4.79;100.00
75815;BME280;70031;45.570;14.228;2024-01-10T02:44:13;97846.44;;;-4.52;100.00
75815;BME280;70031;45.570;14.228;2024-01-10T02:46:14;97849.59;;;-5.05;100.00
75815;BME280;70031;45.570;14.228;2024-01-10T02:48:14;97855.91;;;-5.81;100.00
75815;BME280;70031;45.570;14.228;2024-01-10T02:50:14;97860.97;;;-5.88;100.00
75815;BME280;70031;45.570;14.228;2024-01-10T02:52:15;97868.00;;;-5.88;100.00
75815;BME280;70031;45.570;14.228;2024-01-10T02:54:15;97864.09;;;-5.84;100.00
75815;BME280;70031;45.570;14.228;2024-01-10T02:56:15;97868.81;;;-5.88;100.00
75815;BME280;70031;45.570;14.228;2024-01-10T02:58:16;97861.47;;;-5.84;100.00
75815;BME280;70031;45.570;14.228;2024-01-10T03:00:25;97869.81;;;-5.97;100.00
75815;BME280;70031;45.570;14.228;2024-01-10T03:02:25;97861.78;;;-6.04;100.00
75815;BME280;70031;45.570;14.228;2024-01-10T03:04:25;97853.31;;;-5.73;100.00
75815;BME280;70031;45.570;14.228;2024-01-10T03:06:25;97858.50;;;-5.89;100.00
75815;BME280;70031;45.570;14.228;2024-01-10T03:08:25;97859.19;;;-5.87;100.00
75815;BME280;70031;45.570;14.228;2024-01-10T03:10:26;97869.06;;;-6.24;100.00
75815;BME280;70031;45.570;14.228;2024-01-10T03:12:26;97867.28;;;-6.15;100.00
75815;BME280;70031;45.570;14.228;2024-01-10T03:14:26;97868.75;;;-6.20;100.00
75815;BME280;70031;45.570;14.228;2024-01-10T03:16:26;97869.13;;;-6.07;100.00
75815;BME280;70031;45.570;14.228;2024-01-10T03:18:27;97866.38;;;-5.89;100.00
75815;BME280;70031;45.570;14.228;2024-01-10T03:20:27;97859.41;;;-6.23;100.00
75815;BME280;70031;45.570;14.228;2024-01-10T03:22:27;97864.72;;;-6.41;100.00
75815;BME280;70031;45.570;14.228;2024-01-10T03:24:27;97868.81;;;-6.38;100.00
75815;BME280;70031;45.570;14.228;2024-01-10T03:26:28;97864.91;;;-6.34;100.00
75815;BME280;70031;45.570;14.228;2024-01-10T03:28:30;97871.13;;;-6.35;100.00
75815;BME280;70031;45.570;14.228;2024-01-10T03:30:30;97864.00;;;-6.17;100.00
75815;BME280;70031;45.570;14.228;2024-01-10T03:32:30;97861.31;;;-6.33;100.00
75815;BME280;70031;45.570;14.228;2024-01-10T03:34:31;97861.78;;;-6.38;100.00
75815;BME280;70031;45.570;14.228;2024-01-10T03:36:32;97866.06;;;-6.37;100.00
75815;BME280;70031;45.570;14.228;2024-01-10T03:38:32;97867.78;;;-6.54;100.00
75815;BME280;70031;45.570;14.228;2024-01-10T03:40:32;97875.03;;;-6.65;100.00
75815;BME280;70031;45.570;14.228;2024-01-10T03:42:32;97872.84;;;-6.52;100.00
75815;BME280;70031;45.570;14.228;2024-01-10T03:44:33;97872.78;;;-6.86;100.00
75815;BME280;70031;45.570;14.228;2024-01-10T03:46:33;97873.50;;;-7.02;100.00
75815;BME280;70031;45.570;14.228;2024-01-10T03:48:33;97865.59;;;-7.10;100.00
75815;BME280;70031;45.570;14.228;2024-01-10T03:50:34;97870.94;;;-7.12;100.00
75815;BME280;70031;45.570;14.228;2024-01-10T03:52:34;97872.22;;;-7.16;100.00
75815;BME280;70031;45.570;14.228;2024-01-10T03:54:34;97873.72;;;-7.13;100.00
75815;BME280;70031;45.570;14.228;2024-01-10T03:56:35;97874.97;;;-6.99;100.00
75815;BME280;70031;45.570;14.228;2024-01-10T03:58:35;97879.44;;;-6.92;100.00
75815;BME280;70031;45.570;14.228;2024-01-10T04:00:35;97885.75;;;-7.02;100.00
75815;BME280;70031;45.570;14.228;2024-01-10T04:02:39;97879.34;;;-6.82;100.00
75815;BME280;70031;45.570;14.228;2024-01-10T04:04:39;97877.88;;;-6.85;100.00
75815;BME280;70031;45.570;14.228;2024-01-10T04:06:39;97882.91;;;-6.65;100.00
75815;BME280;70031;45.570;14.228;2024-01-10T04:08:39;97875.81;;;-6.73;100.00
75815;BME280;70031;45.570;14.228;2024-01-10T04:10:39;97868.50;;;-6.69;100.00
75815;BME280;70031;45.570;14.228;2024-01-10T04:12:40;97871.44;;;-6.64;100.00
75815;BME280;70031;45.570;14.228;2024-01-10T04:14:40;97882.34;;;-6.77;100.00
75815;BME280;70031;45.570;14.228;2024-01-10T04:16:42;97875.69;;;-6.89;100.00
75815;BME280;70031;45.570;14.228;2024-01-10T04:18:43;97875.56;;;-7.05;100.00
75815;BME280;70031;45.570;14.228;2024-01-10T04:20:43;97868.06;;;-7.26;100.00
75815;BME280;70031;45.570;14.228;2024-01-10T04:22:44;97868.81;;;-7.34;100.00
75815;BME280;70031;45.570;14.228;2024-01-10T04:24:44;97866.88;;;-7.32;100.00
75815;BME280;70031;45.570;14.228;2024-01-10T04:26:44;97870.94;;;-6.94;100.00
75815;BME280;70031;45.570;14.228;2024-01-10T04:28:44;97871.75;;;-6.93;100.00
75815;BME280;70031;45.570;14.228;2024-01-10T04:30:44;97870.41;;;-6.97;100.00
75815;BME280;70031;45.570;14.228;2024-01-10T04:32:45;97890.28;;;-6.87;100.00
75815;BME280;70031;45.570;14.228;2024-01-10T04:34:45;97879.41;;;-6.74;100.00
75815;BME280;70031;45.570;14.228;2024-01-10T04:36:45;97874.13;;;-6.56;100.00
75815;BME280;70031;45.570;14.228;2024-01-10T04:38:46;97873.19;;;-6.73;100.00
75815;BME280;70031;45.570;14.228;2024-01-10T04:40:46;97881.97;;;-6.82;100.00
75815;BME280;70031;45.570;14.228;2024-01-10T04:42:46;97880.78;;;-6.88;100.00
75815;BME280;70031;45.570;14.228;2024-01-10T04:44:46;97880.16;;;-7.08;100.00
75815;BME280;70031;45.570;14.228;2024-01-10T04:46:46;97891.44;;;-7.25;100.00
75815;BME280;70031;45.570;14.228;2024-01-10T04:48:47;97882.16;;;-7.37;100.00
75815;BME280;70031;45.570;14.228;2024-01-10T04:50:47;97883.59;;;-7.25;100.00
75815;BME280;70031;45.570;14.228;2024-01-10T04:52:47;97885.47;;;-7.35;100.00
75815;BME280;70031;45.570;14.228;2024-01-10T04:54:48;97885.84;;;-7.30;100.00
75815;BME280;70031;45.570;14.228;2024-01-10T04:56:48;97900.13;;;-7.42;100.00
75815;BME280;70031;45.570;14.228;2024-01-10T04:58:48;97896.44;;;-7.49;100.00
75815;BME280;70031;45.570;14.228;2024-01-10T05:00:48;97900.53;;;-7.29;100.00
75815;BME280;70031;45.570;14.228;2024-01-10T05:02:49;97905.09;;;-7.31;100.00
75815;BME280;70031;45.570;14.228;2024-01-10T05:04:49;97903.31;;;-7.48;100.00
75815;BME280;70031;45.570;14.228;2024-01-10T05:06:49;97902.09;;;-7.54;100.00
75815;BME280;70031;45.570;14.228;2024-01-10T05:08:49;97898.16;;;-7.40;100.00
75815;BME280;70031;45.570;14.228;2024-01-10T05:10:49;97899.88;;;-7.49;100.00
75815;BME280;70031;45.570;14.228;2024-01-10T05:12:50;97910.50;;;-7.50;100.00
75815;BME280;70031;45.570;14.228;2024-01-10T05:14:50;97908.22;;;-7.45;100.00
75815;BME280;70031;45.570;14.228;2024-01-10T05:16:50;97909.38;;;-7.48;100.00
75815;BME280;70031;45.570;14.228;2024-01-10T05:18:52;97910.75;;;-7.53;100.00
75815;BME280;70031;45.570;14.228;2024-01-10T05:20:52;97908.03;;;-7.52;100.00
75815;BME280;70031;45.570;14.228;2024-01-10T05:22:52;97903.56;;;-7.42;100.00
75815;BME280;70031;45.570;14.228;2024-01-10T05:24:53;97916.00;;;-7.53;100.00
75815;BME280;70031;45.570;14.228;2024-01-10T05:26:53;97913.78;;;-7.48;100.00
75815;BME280;70031;45.570;14.228;2024-01-10T05:28:53;97919.59;;;-7.54;100.00
75815;BME280;70031;45.570;14.228;2024-01-10T05:30:54;97920.78;;;-7.49;100.00
75815;BME280;70031;45.570;14.228;2024-01-10T05:32:54;97922.00;;;-7.61;100.00
75815;BME280;70031;45.570;14.228;2024-01-10T05:34:54;97925.59;;;-7.44;100.00
75815;BME280;70031;45.570;14.228;2024-01-10T05:36:55;97917.34;;;-7.49;100.00
75815;BME280;70031;45.570;14.228;2024-01-10T05:38:55;97937.88;;;-7.54;100.00
75815;BME280;70031;45.570;14.228;2024-01-10T05:40:55;97922.44;;;-7.48;100.00
75815;BME280;70031;45.570;14.228;2024-01-10T05:42:56;97929.47;;;-7.48;100.00
75815;BME280;70031;45.570;14.228;2024-01-10T05:44:56;97931.75;;;-7.63;100.00
75815;BME280;70031;45.570;14.228;2024-01-10T05:46:56;97940.03;;;-7.68;100.00
75815;BME280;70031;45.570;14.228;2024-01-10T05:48:59;97942.25;;;-7.73;100.00
75815;BME280;70031;45.570;14.228;2024-01-10T05:50:59;97937.50;;;-7.59;100.00
75815;BME280;70031;45.570;14.228;2024-01-10T05:53:00;97943.72;;;-7.60;100.00
75815;BME280;70031;45.570;14.228;2024-01-10T05:55:01;97944.66;;;-7.61;100.00
75815;BME280;70031;45.570;14.228;2024-01-10T05:57:02;97938.91;;;-7.65;100.00
75815;BME280;70031;45.570;14.228;2024-01-10T05:59:03;97940.31;;;-7.71;100.00
75815;BME280;70031;45.570;14.228;2024-01-10T06:01:03;97942.66;;;-7.68;100.00
75815;BME280;70031;45.570;14.228;2024-01-10T06:03:04;97945.34;;;-7.59;100.00
75815;BME280;70031;45.570;14.228;2024-01-10T06:05:10;97943.00;;;-7.35;100.00
75815;BME280;70031;45.570;14.228;2024-01-10T06:07:10;97942.69;;;-7.50;100.00
75815;BME280;70031;45.570;14.228;2024-01-10T06:09:10;97948.63;;;-7.57;100.00
75815;BME280;70031;45.570;14.228;2024-01-10T06:11:11;97942.69;;;-7.50;100.00
75815;BME280;70031;45.570;14.228;2024-01-10T06:13:14;97948.63;;;-7.57;100.00
75815;BME280;70031;45.570;14.228;2024-01-10T06:15:14;97951.00;;;-7.64;100.00
75815;BME280;70031;45.570;14.228;2024-01-10T06:17:15;97946.31;;;-7.60;100.00
75815;BME280;70031;45.570;14.228;2024-01-10T06:19:16;97930.81;;;-7.44;100.00
75815;BME280;70031;45.570;14.228;2024-01-10T06:21:16;97959.50;;;-7.52;100.00
75815;BME280;70031;45.570;14.228;2024-01-10T06:23:16;97950.44;;;-7.58;100.00
75815;BME280;70031;45.570;14.228;2024-01-10T06:25:17;97940.16;;;-7.42;100.00
75815;BME280;70031;45.570;14.228;2024-01-10T06:27:17;97949.19;;;-7.36;100.00
75815;BME280;70031;45.570;14.228;2024-01-10T06:29:18;97955.44;;;-7.47;100.00
75815;BME280;70031;45.570;14.228;2024-01-10T06:31:18;97954.03;;;-7.59;100.00
75815;BME280;70031;45.570;14.228;2024-01-10T06:33:20;97956.91;;;-7.62;100.00
75815;BME280;70031;45.570;14.228;2024-01-10T06:35:20;97947.84;;;-7.40;100.00
75815;BME280;70031;45.570;14.228;2024-01-10T06:37:20;97963.22;;;-7.37;100.00
75815;BME280;70031;45.570;14.228;2024-01-10T06:39:20;97954.78;;;-7.31;100.00
75815;BME280;70031;45.570;14.228;2024-01-10T06:41:21;97956.50;;;-7.22;100.00
75815;BME280;70031;45.570;14.228;2024-01-10T06:43:24;97961.88;;;-7.41;100.00
75815;BME280;70031;45.570;14.228;2024-01-10T06:45:24;97965.25;;;-7.31;100.00
75815;BME280;70031;45.570;14.228;2024-01-10T06:47:24;97970.22;;;-7.28;100.00
75815;BME280;70031;45.570;14.228;2024-01-10T06:49:24;97971.03;;;-7.27;100.00
75815;BME280;70031;45.570;14.228;2024-01-10T06:51:24;97974.97;;;-7.23;100.00
75815;BME280;70031;45.570;14.228;2024-01-10T06:53:26;97972.50;;;-7.25;100.00
75815;BME280;70031;45.570;14.228;2024-01-10T06:55:27;97982.47;;;-7.11;100.00
75815;BME280;70031;45.570;14.228;2024-01-10T06:57:28;97981.25;;;-7.16;100.00
75815;BME280;70031;45.570;14.228;2024-01-10T06:59:29;97983.63;;;-7.23;100.00
75815;BME280;70031;45.570;14.228;2024-01-10T07:01:29;97981.50;;;-7.10;100.00
75815;BME280;70031;45.570;14.228;2024-01-10T07:03:29;97987.78;;;-7.02;100.00
75815;BME280;70031;45.570;14.228;2024-01-10T07:05:29;97983.72;;;-7.15;100.00
75815;BME280;70031;45.570;14.228;2024-01-10T07:07:31;97985.81;;;-7.18;100.00
75815;BME280;70031;45.570;14.228;2024-01-10T07:09:31;97989.44;;;-7.01;100.00
75815;BME280;70031;45.570;14.228;2024-01-10T07:11:32;97990.47;;;-6.76;100.00
75815;BME280;70031;45.570;14.228;2024-01-10T07:13:32;97983.56;;;-6.60;100.00
75815;BME280;70031;45.570;14.228;2024-01-10T07:15:32;97991.22;;;-6.84;100.00
75815;BME280;70031;45.570;14.228;2024-01-10T07:17:32;97994.81;;;-6.85;100.00
75815;BME280;70031;45.570;14.228;2024-01-10T07:19:33;97997.28;;;-6.84;100.00
75815;BME280;70031;45.570;14.228;2024-01-10T07:21:33;97996.81;;;-6.79;100.00
75815;BME280;70031;45.570;14.228;2024-01-10T07:23:33;97999.44;;;-6.61;100.00
75815;BME280;70031;45.570;14.228;2024-01-10T07:25:35;97994.16;;;-6.43;100.00
75815;BME280;70031;45.570;14.228;2024-01-10T07:27:35;97993.75;;;-6.31;100.00
75815;BME280;70031;45.570;14.228;2024-01-10T07:29:37;97994.50;;;-6.20;100.00
75815;BME280;70031;45.570;14.228;2024-01-10T07:31:37;97995.47;;;-5.96;100.00
75815;BME280;70031;45.570;14.228;2024-01-10T07:33:37;97990.91;;;-5.85;100.00
75815;BME280;70031;45.570;14.228;2024-01-10T07:35:38;97991.31;;;-5.64;100.00
75815;BME280;70031;45.570;14.228;2024-01-10T07:37:39;97993.72;;;-5.37;100.00
75815;BME280;70031;45.570;14.228;2024-01-10T07:39:39;98000.81;;;-5.63;100.00
75815;BME280;70031;45.570;14.228;2024-01-10T07:41:41;98004.09;;;-5.69;100.00
75815;BME280;70031;45.570;14.228;2024-01-10T07:43:41;98000.69;;;-5.61;100.00
75815;BME280;70031;45.570;14.228;2024-01-10T07:45:41;98003.19;;;-5.44;100.00
75815;BME280;70031;45.570;14.228;2024-01-10T07:47:42;97999.94;;;-5.38;100.00
75815;BME280;70031;45.570;14.228;2024-01-10T07:49:42;97996.69;;;-5.23;100.00
75815;BME280;70031;45.570;14.228;2024-01-10T07:51:42;97995.63;;;-4.96;100.00
75815;BME280;70031;45.570;14.228;2024-01-10T07:53:42;97999.75;;;-4.77;100.00
75815;BME280;70031;45.570;14.228;2024-01-10T07:55:42;98000.41;;;-4.67;100.00
75815;BME280;70031;45.570;14.228;2024-01-10T07:57:43;98006.31;;;-4.49;100.00
75815;BME280;70031;45.570;14.228;2024-01-10T07:59:43;97999.22;;;-4.08;100.00
75815;BME280;70031;45.570;14.228;2024-01-10T08:01:44;98006.22;;;-3.76;100.00
75815;BME280;70031;45.570;14.228;2024-01-10T08:03:54;98000.53;;;-3.48;100.00
75815;BME280;70031;45.570;14.228;2024-01-10T08:05:54;98002.22;;;-3.47;100.00
75815;BME280;70031;45.570;14.228;2024-01-10T08:07:54;98007.31;;;-3.54;100.00
75815;BME280;70031;45.570;14.228;2024-01-10T08:09:55;98005.22;;;-3.27;100.00
75815;BME280;70031;45.570;14.228;2024-01-10T08:11:55;98005.28;;;-3.04;100.00
75815;BME280;70031;45.570;14.228;2024-01-10T08:13:55;98005.06;;;-2.49;100.00
75815;BME280;70031;45.570;14.228;2024-01-10T08:15:56;98006.06;;;-2.50;100.00
75815;BME280;70031;45.570;14.228;2024-01-10T08:17:56;98008.50;;;-1.88;100.00
75815;BME280;70031;45.570;14.228;2024-01-10T08:19:56;98015.88;;;-1.54;100.00
75815;BME280;70031;45.570;14.228;2024-01-10T08:21:56;98011.69;;;-1.33;100.00
75815;BME280;70031;45.570;14.228;2024-01-10T08:23:57;98011.22;;;-1.07;100.00
75815;BME280;70031;45.570;14.228;2024-01-10T08:25:57;98016.19;;;-0.98;100.00
75815;BME280;70031;45.570;14.228;2024-01-10T08:27:58;98012.53;;;-0.61;100.00
75815;BME280;70031;45.570;14.228;2024-01-10T08:29:59;97997.34;;;-0.31;100.00
75815;BME280;70031;45.570;14.228;2024-01-10T08:31:59;98000.13;;;-0.39;100.00
75815;BME280;70031;45.570;14.228;2024-01-10T08:33:59;97998.22;;;-0.23;100.00
75815;BME280;70031;45.570;14.228;2024-01-10T08:35:59;98007.88;;;0.12;100.00
75815;BME280;70031;45.570;14.228;2024-01-10T08:38:00;98005.34;;;0.04;100.00
75815;BME280;70031;45.570;14.228;2024-01-10T08:40:03;98011.59;;;0.18;100.00
75815;BME280;70031;45.570;14.228;2024-01-10T08:42:07;98004.41;;;0.46;100.00
75815;BME280;70031;45.570;14.228;2024-01-10T08:44:10;98006.75;;;0.28;100.00
75815;BME280;70031;45.570;14.228;2024-01-10T08:46:10;98011.53;;;0.46;100.00
75815;BME280;70031;45.570;14.228;2024-01-10T08:48:11;98012.41;;;0.53;100.00
75815;BME280;70031;45.570;14.228;2024-01-10T08:50:13;98010.47;;;0.40;100.00
75815;BME280;70031;45.570;14.228;2024-01-10T08:52:13;98012.72;;;0.37;100.00
75815;BME280;70031;45.570;14.228;2024-01-10T08:54:13;98005.59;;;0.37;100.00
75815;BME280;70031;45.570;14.228;2024-01-10T08:56:16;98010.63;;;0.25;100.00
75815;BME280;70031;45.570;14.228;2024-01-10T08:58:17;98004.50;;;0.25;100.00
75815;BME280;70031;45.570;14.228;2024-01-10T09:00:17;98011.75;;;0.16;100.00
75815;BME280;70031;45.570;14.228;2024-01-10T09:02:17;98011.75;;;0.44;100.00
75815;BME280;70031;45.570;14.228;2024-01-10T09:04:17;98007.16;;;0.60;100.00
75815;BME280;70031;45.570;14.228;2024-01-10T09:06:19;98017.09;;;0.57;100.00
75815;BME280;70031;45.570;14.228;2024-01-10T09:08:21;98018.81;;;0.72;100.00
75815;BME280;70031;45.570;14.228;2024-01-10T09:10:21;98015.78;;;0.75;96.41
75815;BME280;70031;45.570;14.228;2024-01-10T09:12:21;98013.97;;;0.82;100.00
75815;BME280;70031;45.570;14.228;2024-01-10T09:14:21;98013.88;;;1.03;95.93
75815;BME280;70031;45.570;14.228;2024-01-10T09:16:21;98011.19;;;0.97;91.35
75815;BME280;70031;45.570;14.228;2024-01-10T09:18:22;98010.97;;;0.92;91.53
75815;BME280;70031;45.570;14.228;2024-01-10T09:20:22;98010.41;;;1.03;87.92
75815;BME280;70031;45.570;14.228;2024-01-10T09:22:22;98017.09;;;0.99;91.46
75815;BME280;70031;45.570;14.228;2024-01-10T09:24:23;98017.91;;;0.93;83.04
75815;BME280;70031;45.570;14.228;2024-01-10T09:26:23;98009.41;;;1.10;86.28
75815;BME280;70031;45.570;14.228;2024-01-10T09:28:24;98002.69;;;1.21;88.23
75815;BME280;70031;45.570;14.228;2024-01-10T09:30:24;98020.41;;;0.66;79.06
75815;BME280;70031;45.570;14.228;2024-01-10T09:32:24;98016.94;;;0.59;76.21
75815;BME280;70031;45.570;14.228;2024-01-10T09:34:25;98012.09;;;0.69;78.24
75815;BME280;70031;45.570;14.228;2024-01-10T09:36:25;98009.81;;;0.66;76.30
75815;BME280;70031;45.570;14.228;2024-01-10T09:38:26;98009.88;;;0.79;81.38
75815;BME280;70031;45.570;14.228;2024-01-10T09:40:26;98010.31;;;0.83;77.05
75815;BME280;70031;45.570;14.228;2024-01-10T09:42:29;98006.69;;;0.97;88.07
75815;BME280;70031;45.570;14.228;2024-01-10T09:44:31;98018.03;;;0.78;83.13
75815;BME280;70031;45.570;14.228;2024-01-10T09:46:33;98010.94;;;0.85;78.02
75815;BME280;70031;45.570;14.228;2024-01-10T09:48:34;98006.38;;;0.72;77.12
75815;BME280;70031;45.570;14.228;2024-01-10T09:50:34;98013.09;;;0.68;78.88
75815;BME280;70031;45.570;14.228;2024-01-10T09:52:39;98001.59;;;0.96;81.08
75815;BME280;70031;45.570;14.228;2024-01-10T09:54:41;97999.00;;;1.16;74.00
75815;BME280;70031;45.570;14.228;2024-01-10T09:56:41;98004.88;;;0.98;70.46
75815;BME280;70031;45.570;14.228;2024-01-10T09:58:45;97998.84;;;1.17;72.13
75815;BME280;70031;45.570;14.228;2024-01-10T10:00:48;98009.13;;;0.99;74.87
75815;BME280;70031;45.570;14.228;2024-01-10T10:02:48;98001.38;;;0.91;71.90
75815;BME280;70031;45.570;14.228;2024-01-10T10:07:28;97988.44;;;1.22;73.96
75815;BME280;70031;45.570;14.228;2024-01-10T10:09:29;97981.25;;;1.03;70.71
75815;BME280;70031;45.570;14.228;2024-01-10T10:11:32;97978.69;;;1.43;73.49
75815;BME280;70031;45.570;14.228;2024-01-10T10:13:32;97978.06;;;1.40;69.64
75815;BME280;70031;45.570;14.228;2024-01-10T10:15:35;97973.78;;;1.33;66.71
75815;BME280;70031;45.570;14.228;2024-01-10T10:17:35;97979.09;;;1.46;70.10
75815;BME280;70031;45.570;14.228;2024-01-10T10:19:35;97976.88;;;1.63;66.09
75815;BME280;70031;45.570;14.228;2024-01-10T10:21:35;97975.06;;;1.83;67.60
75815;BME280;70031;45.570;14.228;2024-01-10T10:23:36;97975.88;;;1.57;65.15
75815;BME280;70031;45.570;14.228;2024-01-10T10:25:37;97979.94;;;1.60;64.30
75815;BME280;70031;45.570;14.228;2024-01-10T10:27:42;97972.19;;;1.85;65.81